sensor_id;sensor_type;location;lat;lon;timestamp;P1;durP1;ratioP1;P2;durP2;ratioP2
67675;SDS011;54456;48.436;10.028;2023-06-22T03:16:48;26.73;;;12.45;;
67675;SDS011;54456;48.436;10.028;2023-06-22T03:18:18;29.13;;;12.87;;
67675;SDS011;54456;48.436;10.028;2023-06-22T03:19:49;26.70;;;13.23;;
67675;SDS011;54456;48.436;10.028;2023-06-22T03:21:19;24.17;;;11.90;;
67675;SDS011;54456;48.436;10.028;2023-06-22T03:22:49;28.33;;;12.95;;
67675;SDS011;54456;48.436;10.028;2023-06-22T03:24:19;29.53;;;13.17;;
67675;SDS011;54456;48.436;10.028;2023-06-22T03:25:50;25.35;;;12.65;;
67675;SDS011;54456;48.436;10.028;2023-06-22T03:27:20;26.60;;;12.60;;
67675;SDS011;54456;48.436;10.028;2023-06-22T03:28:51;27.05;;;13.48;;
67675;SDS011;54456;48.436;10.028;2023-06-22T03:31:57;25.33;;;12.75;;
67675;SDS011;54456;48.436;10.028;2023-06-22T03:33:27;24.43;;;12.37;;
67675;SDS011;54456;48.436;10.028;2023-06-22T03:34:58;27.27;;;13.57;;
67675;SDS011;54456;48.436;10.028;2023-06-22T03:36:28;22.50;;;12.05;;
67675;SDS011;54456;48.436;10.028;2023-06-22T03:37:59;24.73;;;12.57;;
67675;SDS011;54456;48.436;10.028;2023-06-22T03:39:29;27.07;;;13.30;;
67675;SDS011;54456;48.436;10.028;2023-06-22T03:40:59;25.43;;;11.90;;
67675;SDS011;54456;48.436;10.028;2023-06-22T03:42:29;25.10;;;12.60;;
67675;SDS011;54456;48.436;10.028;2023-06-22T03:44:00;25.40;;;12.20;;
67675;SDS011;54456;48.436;10.028;2023-06-22T03:45:30;23.63;;;12.43;;
67675;SDS011;54456;48.436;10.028;2023-06-22T03:47:00;24.83;;;11.90;;
67675;SDS011;54456;48.436;10.028;2023-06-22T03:48:32;27.40;;;12.48;;
67675;SDS011;54456;48.436;10.028;2023-06-22T03:50:02;23.47;;;12.07;;
67675;SDS011;54456;48.436;10.028;2023-06-22T03:51:33;26.05;;;11.98;;
67675;SDS011;54456;48.436;10.028;2023-06-22T03:53:04;25.58;;;13.02;;
67675;SDS011;54456;48.436;10.028;2023-06-22T03:54:34;24.70;;;11.73;;
67675;SDS011;54456;48.436;10.028;2023-06-22T03:56:04;23.10;;;11.80;;
67675;SDS011;54456;48.436;10.028;2023-06-22T03:57:34;22.93;;;11.50;;
67675;SDS011;54456;48.436;10.028;2023-06-22T03:59:05;24.67;;;11.87;;
67675;SDS011;54456;48.436;10.028;2023-06-22T04:00:35;23.73;;;11.90;;
67675;SDS011;54456;48.436;10.028;2023-06-22T04:02:05;23.23;;;12.33;;
67675;SDS011;54456;48.436;10.028;2023-06-22T04:03:35;24.85;;;11.60;;
67675;SDS011;54456;48.436;10.028;2023-06-22T04:05:06;23.90;;;11.77;;
67675;SDS011;54456;48.436;10.028;2023-06-22T04:06:36;22.63;;;11.95;;
67675;SDS011;54456;48.436;10.028;2023-06-22T04:08:06;24.20;;;11.70;;
67675;SDS011;54456;48.436;10.028;2023-06-22T04:09:37;21.80;;;10.87;;
67675;SDS011;54456;48.436;10.028;2023-06-22T04:11:07;21.55;;;11.20;;
67675;SDS011;54456;48.436;10.028;2023-06-22T04:12:37;26.60;;;11.77;;
67675;SDS011;54456;48.436;10.028;2023-06-22T04:14:07;23.30;;;10.90;;
67675;SDS011;54456;48.436;10.028;2023-06-22T04:15:38;25.73;;;11.40;;
67675;SDS011;54456;48.436;10.028;2023-06-22T04:17:08;22.00;;;11.37;;
67675;SDS011;54456;48.436;10.028;2023-06-22T04:18:38;21.52;;;10.52;;
67675;SDS011;54456;48.436;10.028;2023-06-22T04:20:08;22.60;;;11.27;;
67675;SDS011;54456;48.436;10.028;2023-06-22T04:21:39;22.17;;;10.87;;
67675;SDS011;54456;48.436;10.028;2023-06-22T04:23:09;22.60;;;10.70;;
67675;SDS011;54456;48.436;10.028;2023-06-22T04:24:39;21.27;;;10.67;;
67675;SDS011;54456;48.436;10.028;2023-06-22T04:26:09;24.17;;;11.10;;
67675;SDS011;54456;48.436;10.028;2023-06-22T04:27:40;21.80;;;10.10;;
67675;SDS011;54456;48.436;10.028;2023-06-22T04:29:10;21.42;;;10.27;;
67675;SDS011;54456;48.436;10.028;2023-06-22T04:30:40;20.87;;;10.33;;
67675;SDS011;54456;48.436;10.028;2023-06-22T04:32:16;20.10;;;9.77;;
67675;SDS011;54456;48.436;10.028;2023-06-22T04:33:46;21.43;;;10.33;;
67675;SDS011;54456;48.436;10.028;2023-06-22T04:35:17;20.27;;;10.57;;
67675;SDS011;54456;48.436;10.028;2023-06-22T04:36:47;21.73;;;10.73;;
67675;SDS011;54456;48.436;10.028;2023-06-22T04:38:17;22.17;;;10.23;;
67675;SDS011;54456;48.436;10.028;2023-06-22T04:39:47;20.53;;;10.13;;
67675;SDS011;54456;48.436;10.028;2023-06-22T04:41:17;22.27;;;10.27;;
67675;SDS011;54456;48.436;10.028;2023-06-22T04:42:53;21.65;;;9.52;;
67675;SDS011;54456;48.436;10.028;2023-06-22T04:44:23;19.80;;;9.97;;
67675;SDS011;54456;48.436;10.028;2023-06-22T04:45:53;20.80;;;8.87;;
67675;SDS011;54456;48.436;10.028;2023-06-22T04:47:24;18.10;;;10.10;;
67675;SDS011;54456;48.436;10.028;2023-06-22T04:48:54;20.50;;;9.90;;
67675;SDS011;54456;48.436;10.028;2023-06-22T04:50:24;21.13;;;9.70;;
67675;SDS011;54456;48.436;10.028;2023-06-22T04:51:55;20.38;;;10.27;;
67675;SDS011;54456;48.436;10.028;2023-06-22T04:53:25;20.65;;;9.38;;
67675;SDS011;54456;48.436;10.028;2023-06-22T04:54:59;20.15;;;9.68;;
67675;SDS011;54456;48.436;10.028;2023-06-22T04:56:30;17.67;;;9.45;;
67675;SDS011;54456;48.436;10.028;2023-06-22T04:58:00;16.48;;;9.52;;
67675;SDS011;54456;48.436;10.028;2023-06-22T05:01:04;18.70;;;9.53;;
67675;SDS011;54456;48.436;10.028;2023-06-22T05:02:35;21.15;;;9.80;;
67675;SDS011;54456;48.436;10.028;2023-06-22T05:04:05;23.13;;;10.07;;
67675;SDS011;54456;48.436;10.028;2023-06-22T05:05:36;19.58;;;9.65;;
67675;SDS011;54456;48.436;10.028;2023-06-22T05:07:06;19.30;;;9.13;;
67675;SDS011;54456;48.436;10.028;2023-06-22T05:08:37;19.67;;;8.50;;
67675;SDS011;54456;48.436;10.028;2023-06-22T05:10:08;21.05;;;9.25;;
67675;SDS011;54456;48.436;10.028;2023-06-22T05:11:38;16.27;;;8.40;;
67675;SDS011;54456;48.436;10.028;2023-06-22T05:13:08;18.20;;;9.10;;
67675;SDS011;54456;48.436;10.028;2023-06-22T05:14:38;20.53;;;9.13;;
67675;SDS011;54456;48.436;10.028;2023-06-22T05:16:09;16.97;;;8.07;;
67675;SDS011;54456;48.436;10.028;2023-06-22T05:17:39;17.20;;;8.53;;
67675;SDS011;54456;48.436;10.028;2023-06-22T05:19:12;16.80;;;8.60;;
67675;SDS011;54456;48.436;10.028;2023-06-22T05:20:42;16.33;;;8.53;;
67675;SDS011;54456;48.436;10.028;2023-06-22T05:22:13;15.20;;;8.73;;
67675;SDS011;54456;48.436;10.028;2023-06-22T05:23:43;15.40;;;8.48;;
67675;SDS011;54456;48.436;10.028;2023-06-22T05:25:13;17.50;;;7.83;;
67675;SDS011;54456;48.436;10.028;2023-06-22T05:26:44;16.07;;;7.87;;
67675;SDS011;54456;48.436;10.028;2023-06-22T05:28:14;15.27;;;7.67;;
67675;SDS011;54456;48.436;10.028;2023-06-22T05:29:44;15.73;;;7.93;;
67675;SDS011;54456;48.436;10.028;2023-06-22T05:31:15;14.73;;;7.50;;
67675;SDS011;54456;48.436;10.028;2023-06-22T05:32:45;14.90;;;7.88;;
67675;SDS011;54456;48.436;10.028;2023-06-22T05:34:15;13.70;;;6.80;;
67675;SDS011;54456;48.436;10.028;2023-06-22T05:35:45;14.77;;;7.20;;
67675;SDS011;54456;48.436;10.028;2023-06-22T05:37:16;14.65;;;7.53;;
67675;SDS011;54456;48.436;10.028;2023-06-22T05:38:47;13.35;;;6.60;;
67675;SDS011;54456;48.436;10.028;2023-06-22T05:40:17;16.88;;;7.22;;
67675;SDS011;54456;48.436;10.028;2023-06-22T05:41:48;13.80;;;7.87;;
67675;SDS011;54456;48.436;10.028;2023-06-22T05:43:18;16.50;;;7.03;;
67675;SDS011;54456;48.436;10.028;2023-06-22T05:44:48;13.83;;;6.47;;
67675;SDS011;54456;48.436;10.028;2023-06-22T05:46:19;15.80;;;6.67;;
67675;SDS011;54456;48.436;10.028;2023-06-22T05:47:49;14.00;;;6.80;;
67675;SDS011;54456;48.436;10.028;2023-06-22T05:49:19;13.60;;;6.47;;
67675;SDS011;54456;48.436;10.028;2023-06-22T05:50:52;17.33;;;6.82;;
67675;SDS011;54456;48.436;10.028;2023-06-22T05:52:22;15.18;;;6.60;;
67675;SDS011;54456;48.436;10.028;2023-06-22T05:53:52;13.93;;;6.70;;
67675;SDS011;54456;48.436;10.028;2023-06-22T05:55:23;17.67;;;7.50;;
67675;SDS011;54456;48.436;10.028;2023-06-22T05:56:53;13.87;;;6.73;;
67675;SDS011;54456;48.436;10.028;2023-06-22T05:58:23;14.05;;;6.80;;
67675;SDS011;54456;48.436;10.028;2023-06-22T05:59:54;14.77;;;7.27;;
67675;SDS011;54456;48.436;10.028;2023-06-22T06:01:24;14.57;;;6.97;;
67675;SDS011;54456;48.436;10.028;2023-06-22T06:02:56;14.90;;;7.25;;
67675;SDS011;54456;48.436;10.028;2023-06-22T06:04:26;16.40;;;7.30;;
67675;SDS011;54456;48.436;10.028;2023-06-22T06:05:57;14.47;;;7.13;;
67675;SDS011;54456;48.436;10.028;2023-06-22T06:07:27;14.53;;;6.93;;
67675;SDS011;54456;48.436;10.028;2023-06-22T06:08:57;14.80;;;7.30;;
67675;SDS011;54456;48.436;10.028;2023-06-22T06:10:28;16.15;;;7.35;;
67675;SDS011;54456;48.436;10.028;2023-06-22T06:11:59;16.50;;;6.95;;
67675;SDS011;54456;48.436;10.028;2023-06-22T06:13:30;14.47;;;7.33;;
67675;SDS011;54456;48.436;10.028;2023-06-22T06:15:00;16.17;;;8.10;;
67675;SDS011;54456;48.436;10.028;2023-06-22T06:16:30;17.47;;;7.83;;
67675;SDS011;54456;48.436;10.028;2023-06-22T06:18:00;16.50;;;7.30;;
67675;SDS011;54456;48.436;10.028;2023-06-22T06:19:32;15.85;;;8.32;;
67675;SDS011;54456;48.436;10.028;2023-06-22T06:21:02;14.70;;;7.47;;
67675;SDS011;54456;48.436;10.028;2023-06-22T06:22:32;16.33;;;7.67;;
67675;SDS011;54456;48.436;10.028;2023-06-22T06:24:02;14.00;;;7.83;;
67675;SDS011;54456;48.436;10.028;2023-06-22T06:25:33;16.25;;;7.68;;
67675;SDS011;54456;48.436;10.028;2023-06-22T06:27:03;14.50;;;7.43;;
67675;SDS011;54456;48.436;10.028;2023-06-22T06:28:34;14.52;;;7.75;;
67675;SDS011;54456;48.436;10.028;2023-06-22T06:30:05;13.43;;;7.00;;
67675;SDS011;54456;48.436;10.028;2023-06-22T06:31:35;14.82;;;7.30;;
67675;SDS011;54456;48.436;10.028;2023-06-22T06:33:06;16.00;;;6.97;;
67675;SDS011;54456;48.436;10.028;2023-06-22T06:34:38;13.77;;;7.43;;
67675;SDS011;54456;48.436;10.028;2023-06-22T06:36:08;15.27;;;7.23;;
67675;SDS011;54456;48.436;10.028;2023-06-22T06:37:39;14.33;;;7.03;;
67675;SDS011;54456;48.436;10.028;2023-06-22T06:39:09;15.43;;;6.90;;
67675;SDS011;54456;48.436;10.028;2023-06-22T06:40:40;14.73;;;7.23;;
67675;SDS011;54456;48.436;10.028;2023-06-22T06:42:10;14.30;;;6.67;;
67675;SDS011;54456;48.436;10.028;2023-06-22T06:43:41;14.23;;;6.63;;
67675;SDS011;54456;48.436;10.028;2023-06-22T06:45:16;13.60;;;7.50;;
67675;SDS011;54456;48.436;10.028;2023-06-22T06:46:47;16.50;;;7.30;;
67675;SDS011;54456;48.436;10.028;2023-06-22T06:48:17;14.67;;;7.03;;
67675;SDS011;54456;48.436;10.028;2023-06-22T06:49:47;13.77;;;7.55;;
67675;SDS011;54456;48.436;10.028;2023-06-22T06:51:17;15.50;;;6.73;;
67675;SDS011;54456;48.436;10.028;2023-06-22T06:52:48;15.70;;;6.43;;
67675;SDS011;54456;48.436;10.028;2023-06-22T06:54:21;18.25;;;8.10;;
67675;SDS011;54456;48.436;10.028;2023-06-22T06:55:51;16.50;;;7.43;;
67675;SDS011;54456;48.436;10.028;2023-06-22T06:57:21;14.97;;;7.17;;
67675;SDS011;54456;48.436;10.028;2023-06-22T06:58:52;14.90;;;8.32;;
67675;SDS011;54456;48.436;10.028;2023-06-22T07:00:22;15.60;;;7.20;;
67675;SDS011;54456;48.436;10.028;2023-06-22T07:01:53;14.60;;;7.35;;
67675;SDS011;54456;48.436;10.028;2023-06-22T07:03:23;14.57;;;7.20;;
67675;SDS011;54456;48.436;10.028;2023-06-22T07:04:54;15.57;;;6.77;;
67675;SDS011;54456;48.436;10.028;2023-06-22T07:06:25;16.25;;;6.15;;
67675;SDS011;54456;48.436;10.028;2023-06-22T07:07:59;13.13;;;7.25;;
67675;SDS011;54456;48.436;10.028;2023-06-22T07:09:29;15.27;;;7.20;;
67675;SDS011;54456;48.436;10.028;2023-06-22T07:10:59;13.90;;;6.87;;
67675;SDS011;54456;48.436;10.028;2023-06-22T07:12:30;14.65;;;7.30;;
67675;SDS011;54456;48.436;10.028;2023-06-22T07:14:01;13.93;;;7.30;;
67675;SDS011;54456;48.436;10.028;2023-06-22T07:15:31;14.00;;;7.10;;
67675;SDS011;54456;48.436;10.028;2023-06-22T07:17:01;14.63;;;6.83;;
67675;SDS011;54456;48.436;10.028;2023-06-22T07:18:31;17.23;;;7.30;;
67675;SDS011;54456;48.436;10.028;2023-06-22T07:20:02;15.17;;;6.93;;
67675;SDS011;54456;48.436;10.028;2023-06-22T07:21:37;15.82;;;6.95;;
67675;SDS011;54456;48.436;10.028;2023-06-22T07:23:07;14.10;;;6.80;;
67675;SDS011;54456;48.436;10.028;2023-06-22T07:24:38;14.13;;;7.10;;
67675;SDS011;54456;48.436;10.028;2023-06-22T07:26:08;15.53;;;7.03;;
67675;SDS011;54456;48.436;10.028;2023-06-22T07:27:39;13.50;;;7.23;;
67675;SDS011;54456;48.436;10.028;2023-06-22T07:29:12;15.07;;;7.18;;
67675;SDS011;54456;48.436;10.028;2023-06-22T07:30:42;13.33;;;6.37;;
67675;SDS011;54456;48.436;10.028;2023-06-22T07:32:13;15.37;;;6.67;;
67675;SDS011;54456;48.436;10.028;2023-06-22T07:33:43;15.32;;;7.15;;
67675;SDS011;54456;48.436;10.028;2023-06-22T07:35:13;16.63;;;7.20;;
67675;SDS011;54456;48.436;10.028;2023-06-22T07:36:46;13.98;;;6.30;;
67675;SDS011;54456;48.436;10.028;2023-06-22T07:38:16;13.10;;;6.17;;
67675;SDS011;54456;48.436;10.028;2023-06-22T07:39:46;14.60;;;6.50;;
67675;SDS011;54456;48.436;10.028;2023-06-22T07:41:17;15.40;;;7.90;;
67675;SDS011;54456;48.436;10.028;2023-06-22T07:42:47;15.50;;;7.10;;
67675;SDS011;54456;48.436;10.028;2023-06-22T07:44:21;13.00;;;7.03;;
67675;SDS011;54456;48.436;10.028;2023-06-22T07:45:51;14.93;;;6.80;;
67675;SDS011;54456;48.436;10.028;2023-06-22T07:47:22;16.43;;;6.70;;
67675;SDS011;54456;48.436;10.028;2023-06-22T07:48:56;12.57;;;6.72;;
67675;SDS011;54456;48.436;10.028;2023-06-22T07:50:26;14.70;;;5.65;;
67675;SDS011;54456;48.436;10.028;2023-06-22T07:51:56;14.53;;;7.10;;
67675;SDS011;54456;48.436;10.028;2023-06-22T07:53:26;15.27;;;6.67;;
67675;SDS011;54456;48.436;10.028;2023-06-22T07:54:58;12.60;;;6.57;;
67675;SDS011;54456;48.436;10.028;2023-06-22T07:56:28;15.70;;;6.10;;
67675;SDS011;54456;48.436;10.028;2023-06-22T07:57:58;14.13;;;7.07;;
67675;SDS011;54456;48.436;10.028;2023-06-22T07:59:29;11.87;;;6.23;;
67675;SDS011;54456;48.436;10.028;2023-06-22T08:00:59;14.87;;;5.93;;
67675;SDS011;54456;48.436;10.028;2023-06-22T08:02:29;11.47;;;6.50;;
67675;SDS011;54456;48.436;10.028;2023-06-22T08:03:59;13.73;;;6.23;;
67675;SDS011;54456;48.436;10.028;2023-06-22T08:05:30;13.07;;;6.00;;
67675;SDS011;54456;48.436;10.028;2023-06-22T08:07:00;13.30;;;6.50;;
67675;SDS011;54456;48.436;10.028;2023-06-22T08:08:31;14.90;;;6.43;;
67675;SDS011;54456;48.436;10.028;2023-06-22T08:10:01;12.98;;;6.20;;
67675;SDS011;54456;48.436;10.028;2023-06-22T08:11:31;12.90;;;6.67;;
67675;SDS011;54456;48.436;10.028;2023-06-22T08:13:01;15.47;;;7.07;;
67675;SDS011;54456;48.436;10.028;2023-06-22T08:14:32;13.50;;;6.63;;
67675;SDS011;54456;48.436;10.028;2023-06-22T08:16:02;13.57;;;7.33;;
67675;SDS011;54456;48.436;10.028;2023-06-22T08:17:32;12.73;;;6.07;;
67675;SDS011;54456;48.436;10.028;2023-06-22T08:19:02;14.80;;;7.03;;
67675;SDS011;54456;48.436;10.028;2023-06-22T08:20:33;12.97;;;7.10;;
67675;SDS011;54456;48.436;10.028;2023-06-22T08:22:03;14.50;;;7.75;;
67675;SDS011;54456;48.436;10.028;2023-06-22T08:23:33;15.73;;;6.75;;
67675;SDS011;54456;48.436;10.028;2023-06-22T08:25:04;14.73;;;6.20;;
67675;SDS011;54456;48.436;10.028;2023-06-22T08:26:34;14.48;;;5.65;;
67675;SDS011;54456;48.436;10.028;2023-06-22T08:28:06;13.07;;;6.28;;
67675;SDS011;54456;48.436;10.028;2023-06-22T08:29:37;14.73;;;6.10;;
67675;SDS011;54456;48.436;10.028;2023-06-22T08:31:07;12.37;;;6.20;;
67675;SDS011;54456;48.436;10.028;2023-06-22T08:32:38;11.80;;;6.07;;
67675;SDS011;54456;48.436;10.028;2023-06-22T08:34:08;12.10;;;6.20;;
67675;SDS011;54456;48.436;10.028;2023-06-22T08:35:39;14.00;;;6.23;;
67675;SDS011;54456;48.436;10.028;2023-06-22T08:37:09;15.27;;;7.10;;
67675;SDS011;54456;48.436;10.028;2023-06-22T08:38:39;13.27;;;6.50;;
67675;SDS011;54456;48.436;10.028;2023-06-22T08:40:10;15.10;;;7.20;;
67675;SDS011;54456;48.436;10.028;2023-06-22T08:41:40;15.98;;;7.13;;
67675;SDS011;54456;48.436;10.028;2023-06-22T08:43:10;13.37;;;6.67;;
67675;SDS011;54456;48.436;10.028;2023-06-22T08:44:41;15.02;;;7.88;;
67675;SDS011;54456;48.436;10.028;2023-06-22T08:46:11;14.67;;;7.33;;
67675;SDS011;54456;48.436;10.028;2023-06-22T08:47:41;12.97;;;5.90;;
67675;SDS011;54456;48.436;10.028;2023-06-22T08:49:12;18.63;;;7.13;;
67675;SDS011;54456;48.436;10.028;2023-06-22T08:50:42;15.17;;;6.53;;
67675;SDS011;54456;48.436;10.028;2023-06-22T08:52:12;13.73;;;6.77;;
67675;SDS011;54456;48.436;10.028;2023-06-22T08:53:43;17.57;;;6.37;;
67675;SDS011;54456;48.436;10.028;2023-06-22T08:55:15;16.00;;;6.40;;
67675;SDS011;54456;48.436;10.028;2023-06-22T08:56:45;15.60;;;6.70;;
67675;SDS011;54456;48.436;10.028;2023-06-22T08:58:15;13.03;;;5.80;;
67675;SDS011;54456;48.436;10.028;2023-06-22T08:59:47;13.07;;;6.17;;
67675;SDS011;54456;48.436;10.028;2023-06-22T09:01:17;13.82;;;5.85;;
67675;SDS011;54456;48.436;10.028;2023-06-22T09:02:47;14.73;;;6.43;;
67675;SDS011;54456;48.436;10.028;2023-06-22T09:04:18;14.00;;;6.32;;
67675;SDS011;54456;48.436;10.028;2023-06-22T09:05:48;13.10;;;5.90;;
67675;SDS011;54456;48.436;10.028;2023-06-22T09:07:18;12.70;;;5.97;;
67675;SDS011;54456;48.436;10.028;2023-06-22T09:08:52;15.50;;;7.30;;
67675;SDS011;54456;48.436;10.028;2023-06-22T09:10:22;15.07;;;6.67;;
67675;SDS011;54456;48.436;10.028;2023-06-22T09:11:52;13.43;;;6.20;;
67675;SDS011;54456;48.436;10.028;2023-06-22T09:13:23;13.70;;;6.30;;
67675;SDS011;54456;48.436;10.028;2023-06-22T09:14:53;13.15;;;5.93;;
67675;SDS011;54456;48.436;10.028;2023-06-22T09:16:23;15.07;;;7.13;;
67675;SDS011;54456;48.436;10.028;2023-06-22T09:17:54;18.67;;;7.67;;
67675;SDS011;54456;48.436;10.028;2023-06-22T09:19:24;13.63;;;6.40;;
67675;SDS011;54456;48.436;10.028;2023-06-22T09:20:54;15.07;;;7.27;;
67675;SDS011;54456;48.436;10.028;2023-06-22T09:22:24;14.18;;;7.57;;
67675;SDS011;54456;48.436;10.028;2023-06-22T09:23:59;13.80;;;7.25;;
67675;SDS011;54456;48.436;10.028;2023-06-22T09:25:29;15.50;;;7.30;;
67675;SDS011;54456;48.436;10.028;2023-06-22T09:26:59;16.40;;;7.67;;
67675;SDS011;54456;48.436;10.028;2023-06-22T09:28:29;14.95;;;6.32;;
67675;SDS011;54456;48.436;10.028;2023-06-22T09:30:00;15.27;;;6.50;;
67675;SDS011;54456;48.436;10.028;2023-06-22T09:31:30;12.47;;;6.40;;
67675;SDS011;54456;48.436;10.028;2023-06-22T09:33:00;14.63;;;7.43;;
67675;SDS011;54456;48.436;10.028;2023-06-22T09:34:31;14.13;;;7.05;;
67675;SDS011;54456;48.436;10.028;2023-06-22T09:36:01;14.30;;;6.30;;
67675;SDS011;54456;48.436;10.028;2023-06-22T09:37:31;16.27;;;6.68;;
67675;SDS011;54456;48.436;10.028;2023-06-22T09:39:02;14.67;;;7.23;;
67675;SDS011;54456;48.436;10.028;2023-06-22T09:40:35;13.52;;;6.28;;
67675;SDS011;54456;48.436;10.028;2023-06-22T09:42:09;12.32;;;6.05;;
67675;SDS011;54456;48.436;10.028;2023-06-22T09:43:40;12.95;;;6.40;;
67675;SDS011;54456;48.436;10.028;2023-06-22T09:45:10;15.77;;;6.70;;
67675;SDS011;54456;48.436;10.028;2023-06-22T09:46:40;12.80;;;6.20;;
67675;SDS011;54456;48.436;10.028;2023-06-22T09:48:11;14.77;;;6.43;;
67675;SDS011;54456;48.436;10.028;2023-06-22T09:49:41;16.27;;;6.23;;
67675;SDS011;54456;48.436;10.028;2023-06-22T09:51:11;14.37;;;5.93;;
67675;SDS011;54456;48.436;10.028;2023-06-22T09:52:41;15.33;;;6.03;;
67675;SDS011;54456;48.436;10.028;2023-06-22T09:54:14;13.63;;;6.13;;
67675;SDS011;54456;48.436;10.028;2023-06-22T09:55:45;14.40;;;6.80;;
67675;SDS011;54456;48.436;10.028;2023-06-22T09:57:15;14.20;;;5.80;;
67675;SDS011;54456;48.436;10.028;2023-06-22T09:58:45;13.77;;;6.03;;
67675;SDS011;54456;48.436;10.028;2023-06-22T10:00:22;11.25;;;5.40;;
67675;SDS011;54456;48.436;10.028;2023-06-22T10:01:52;12.93;;;5.93;;
67675;SDS011;54456;48.436;10.028;2023-06-22T10:03:23;15.97;;;6.43;;
67675;SDS011;54456;48.436;10.028;2023-06-22T10:04:53;16.23;;;5.93;;
67675;SDS011;54456;48.436;10.028;2023-06-22T10:06:23;14.45;;;5.55;;
67675;SDS011;54456;48.436;10.028;2023-06-22T10:07:55;12.55;;;6.18;;
67675;SDS011;54456;48.436;10.028;2023-06-22T10:09:25;15.70;;;7.13;;
67675;SDS011;54456;48.436;10.028;2023-06-22T10:10:55;15.13;;;5.63;;
67675;SDS011;54456;48.436;10.028;2023-06-22T10:12:27;13.33;;;6.00;;
67675;SDS011;54456;48.436;10.028;2023-06-22T10:13:57;12.63;;;6.15;;
67675;SDS011;54456;48.436;10.028;2023-06-22T10:15:27;12.73;;;5.97;;
67675;SDS011;54456;48.436;10.028;2023-06-22T10:16:57;13.55;;;6.28;;
67675;SDS011;54456;48.436;10.028;2023-06-22T10:18:28;11.87;;;5.70;;
67675;SDS011;54456;48.436;10.028;2023-06-22T10:19:58;13.13;;;5.87;;
67675;SDS011;54456;48.436;10.028;2023-06-22T10:21:28;13.53;;;5.57;;
67675;SDS011;54456;48.436;10.028;2023-06-22T10:22:59;16.25;;;5.80;;
67675;SDS011;54456;48.436;10.028;2023-06-22T10:24:29;12.17;;;5.90;;
67675;SDS011;54456;48.436;10.028;2023-06-22T10:25:59;13.47;;;5.70;;
67675;SDS011;54456;48.436;10.028;2023-06-22T10:27:29;12.63;;;6.20;;
67675;SDS011;54456;48.436;10.028;2023-06-22T10:29:01;16.48;;;5.93;;
67675;SDS011;54456;48.436;10.028;2023-06-22T10:30:32;18.73;;;6.40;;
67675;SDS011;54456;48.436;10.028;2023-06-22T10:32:02;16.77;;;6.70;;
67675;SDS011;54456;48.436;10.028;2023-06-22T10:33:32;13.27;;;6.00;;
67675;SDS011;54456;48.436;10.028;2023-06-22T10:35:03;13.00;;;6.10;;
67675;SDS011;54456;48.436;10.028;2023-06-22T10:36:33;14.90;;;6.75;;
67675;SDS011;54456;48.436;10.028;2023-06-22T10:38:03;13.57;;;5.90;;
67675;SDS011;54456;48.436;10.028;2023-06-22T10:39:33;14.20;;;6.20;;
67675;SDS011;54456;48.436;10.028;2023-06-22T10:41:04;16.50;;;6.20;;
67675;SDS011;54456;48.436;10.028;2023-06-22T10:42:34;15.30;;;6.17;;
67675;SDS011;54456;48.436;10.028;2023-06-22T10:44:04;13.40;;;6.50;;
67675;SDS011;54456;48.436;10.028;2023-06-22T10:45:34;16.23;;;5.85;;
67675;SDS011;54456;48.436;10.028;2023-06-22T10:47:05;15.50;;;6.10;;
67675;SDS011;54456;48.436;10.028;2023-06-22T10:48:35;14.98;;;6.38;;
67675;SDS011;54456;48.436;10.028;2023-06-22T10:50:05;12.63;;;6.00;;
67675;SDS011;54456;48.436;10.028;2023-06-22T10:51:36;15.02;;;6.38;;
67675;SDS011;54456;48.436;10.028;2023-06-22T10:53:06;14.03;;;6.27;;
67675;SDS011;54456;48.436;10.028;2023-06-22T10:54:37;13.20;;;6.20;;
67675;SDS011;54456;48.436;10.028;2023-06-22T10:56:07;18.90;;;6.95;;
67675;SDS011;54456;48.436;10.028;2023-06-22T10:57:38;17.37;;;7.07;;
67675;SDS011;54456;48.436;10.028;2023-06-22T10:59:11;14.93;;;6.28;;
67675;SDS011;54456;48.436;10.028;2023-06-22T11:00:42;15.80;;;6.50;;
67675;SDS011;54456;48.436;10.028;2023-06-22T11:02:12;15.37;;;6.83;;
67675;SDS011;54456;48.436;10.028;2023-06-22T11:03:42;15.33;;;7.20;;
67675;SDS011;54456;48.436;10.028;2023-06-22T11:05:12;16.70;;;6.90;;
67675;SDS011;54456;48.436;10.028;2023-06-22T11:06:43;12.27;;;6.13;;
67675;SDS011;54456;48.436;10.028;2023-06-22T11:08:13;15.40;;;6.53;;
67675;SDS011;54456;48.436;10.028;2023-06-22T11:09:43;14.63;;;6.87;;
67675;SDS011;54456;48.436;10.028;2023-06-22T11:11:13;14.37;;;6.63;;
67675;SDS011;54456;48.436;10.028;2023-06-22T11:12:44;13.93;;;7.20;;
67675;SDS011;54456;48.436;10.028;2023-06-22T11:14:14;14.80;;;6.65;;
67675;SDS011;54456;48.436;10.028;2023-06-22T11:15:44;14.20;;;7.03;;
67675;SDS011;54456;48.436;10.028;2023-06-22T11:17:15;17.10;;;7.23;;
67675;SDS011;54456;48.436;10.028;2023-06-22T11:18:45;16.50;;;7.27;;
67675;SDS011;54456;48.436;10.028;2023-06-22T11:20:15;15.33;;;7.83;;
67675;SDS011;54456;48.436;10.028;2023-06-22T11:21:46;16.80;;;6.82;;
67675;SDS011;54456;48.436;10.028;2023-06-22T11:23:16;17.37;;;6.60;;
67675;SDS011;54456;48.436;10.028;2023-06-22T11:24:46;18.40;;;7.20;;
67675;SDS011;54456;48.436;10.028;2023-06-22T11:26:17;17.43;;;7.77;;
67675;SDS011;54456;48.436;10.028;2023-06-22T11:27:47;15.00;;;7.80;;
67675;SDS011;54456;48.436;10.028;2023-06-22T11:29:17;17.77;;;7.10;;
67675;SDS011;54456;48.436;10.028;2023-06-22T11:30:48;15.40;;;7.07;;
67675;SDS011;54456;48.436;10.028;2023-06-22T11:32:18;15.57;;;7.20;;
67675;SDS011;54456;48.436;10.028;2023-06-22T11:33:48;17.97;;;7.70;;
67675;SDS011;54456;48.436;10.028;2023-06-22T11:35:18;17.87;;;8.30;;
67675;SDS011;54456;48.436;10.028;2023-06-22T11:36:49;17.47;;;7.70;;
67675;SDS011;54456;48.436;10.028;2023-06-22T11:38:19;16.80;;;7.47;;
67675;SDS011;54456;48.436;10.028;2023-06-22T11:39:49;15.73;;;6.53;;
67675;SDS011;54456;48.436;10.028;2023-06-22T11:41:19;17.43;;;7.50;;
67675;SDS011;54456;48.436;10.028;2023-06-22T11:42:49;18.63;;;7.00;;
67675;SDS011;54456;48.436;10.028;2023-06-22T11:44:20;17.10;;;8.07;;
67675;SDS011;54456;48.436;10.028;2023-06-22T11:45:50;18.40;;;8.30;;
67675;SDS011;54456;48.436;10.028;2023-06-22T11:47:20;16.30;;;7.30;;
67675;SDS011;54456;48.436;10.028;2023-06-22T11:48:50;18.00;;;7.17;;
67675;SDS011;54456;48.436;10.028;2023-06-22T11:50:21;16.33;;;7.03;;
67675;SDS011;54456;48.436;10.028;2023-06-22T11:51:51;14.60;;;6.93;;
67675;SDS011;54456;48.436;10.028;2023-06-22T11:53:21;18.67;;;8.10;;
67675;SDS011;54456;48.436;10.028;2023-06-22T11:54:52;14.43;;;6.95;;
67675;SDS011;54456;48.436;10.028;2023-06-22T11:56:22;18.47;;;7.10;;
67675;SDS011;54456;48.436;10.028;2023-06-22T11:57:53;19.67;;;6.93;;
67675;SDS011;54456;48.436;10.028;2023-06-22T11:59:24;17.05;;;7.00;;
67675;SDS011;54456;48.436;10.028;2023-06-22T12:00:54;13.97;;;6.30;;
67675;SDS011;54456;48.436;10.028;2023-06-22T12:02:24;19.07;;;7.70;;
67675;SDS011;54456;48.436;10.028;2023-06-22T12:03:55;18.47;;;6.97;;
67675;SDS011;54456;48.436;10.028;2023-06-22T12:05:25;15.30;;;6.30;;
67675;SDS011;54456;48.436;10.028;2023-06-22T12:06:55;14.77;;;6.28;;